Time;durP1;ratioP1;P1;durP2;ratioP2;P2;SDS_P1;SDS_P2;PMS_P1;PMS_P2;Temp;Humidity;BMP_temperature;BMP_pressure;BME280_temperature;BME280_humidity;BME280_pressure;Samples;Min_cycle;Max_cycle;Signal;HPM_P1;HPM_P2
2023/03/18 00:01:12;;;;;;;37.00;18.80;;;;;;;18.14;33.00;101051.94;108304;1254;72350;-66
2023/03/18 00:03:40;;;;;;;33.70;19.00;;;;;;;18.42;32.72;101048.65;108357;1254;70750;-65
2023/03/18 00:06:14;;;;;;;33.00;18.10;;;;;;;18.22;32.75;101051.36;108236;1255;73500;-67
2023/03/18 00:08:44;;;;;;;33.00;17.60;;;;;;;18.02;33.14;101051.32;108262;1257;61494;-68
2023/03/18 00:11:13;;;;;;;30.00;16.90;;;;;;;17.87;33.30;101050.33;108314;1252;60392;-67
2023/03/18 00:13:42;;;;;;;29.90;17.00;;;;;;;18.01;33.18;101048.54;108242;1254;72748;-67
2023/03/18 00:16:18;;;;;;;31.80;18.00;;;;;;;18.14;33.07;101049.62;108227;1255;69146;-66
2023/03/18 00:18:47;;;;;;;30.40;17.70;;;;;;;18.20;32.95;101048.45;108330;1256;72744;-67
2023/03/18 00:21:15;;;;;;;32.80;17.70;;;;;;;18.09;33.06;101047.92;108334;1254;60390;-66
2023/03/18 00:23:44;;;;;;;35.40;19.00;;;;;;;18.23;32.86;101049.14;108343;1253;60393;-66
2023/03/18 00:26:14;;;;;;;42.90;20.90;;;;;;;18.37;32.71;101042.51;108333;1254;70811;-65
2023/03/18 00:28:42;;;;;;;34.60;18.20;;;;;;;18.05;33.06;101045.52;108316;1254;71373;-65
2023/03/18 00:31:12;;;;;;;39.20;19.50;;;;;;;17.99;33.09;101046.17;108347;1256;72388;-65
2023/03/18 00:33:44;;;;;;;39.80;20.30;;;;;;;18.19;32.90;101048.45;108312;1253;62419;-66
2023/03/18 00:36:15;;;;;;;41.40;20.40;;;;;;;18.34;32.62;101049.27;108244;1254;61058;-66
2023/03/18 00:38:45;;;;;;;40.10;18.90;;;;;;;18.54;32.43;101047.30;108285;1254;74377;-64
2023/03/18 00:41:14;;;;;;;34.40;18.10;;;;;;;18.46;32.38;101057.49;108240;1255;70175;-65
2023/03/18 00:43:45;;;;;;;35.80;17.20;;;;;;;18.46;32.31;101057.10;108258;1254;73839;-66
2023/03/18 00:46:16;;;;;;;32.60;17.70;;;;;;;18.59;32.17;101055.68;108203;1256;62206;-66
2023/03/18 00:48:50;;;;;;;27.80;16.10;;;;;;;18.53;32.19;101054.27;108323;1254;60408;-65
2023/03/18 00:51:19;;;;;;;27.20;14.80;;;;;;;18.32;32.37;101052.02;108296;1253;73712;-66
2023/03/18 00:53:54;;;;;;;33.20;16.80;;;;;;;18.26;32.50;101053.09;108104;1258;71645;-66
2023/03/18 00:56:24;;;;;;;33.80;17.10;;;;;;;18.43;32.24;101056.42;108159;1257;71044;-66
2023/03/18 00:58:53;;;;;;;32.60;16.50;;;;;;;18.69;31.99;101051.61;108298;1253;60955;-66
2023/03/18 01:01:22;;;;;;;30.90;16.30;;;;;;;18.88;31.68;101051.42;108275;1257;60476;-66
2023/03/18 01:03:52;;;;;;;29.20;16.10;;;;;;;18.82;31.69;101056.05;108108;1254;74114;-66
2023/03/18 01:06:24;;;;;;;26.70;14.10;;;;;;;18.80;31.59;101062.23;108392;1254;71811;-66
2023/03/18 01:08:53;;;;;;;34.50;16.90;;;;;;;18.54;31.89;101063.09;108145;1254;73108;-66
2023/03/18 01:11:22;;;;;;;25.90;15.30;;;;;;;18.63;31.78;101063.48;108377;1256;62532;-64
2023/03/18 01:13:50;;;;;;;32.90;17.30;;;;;;;18.64;31.81;101064.33;108424;1254;61334;-66
2023/03/18 01:16:19;;;;;;;30.40;17.00;;;;;;;18.59;31.80;101069.02;108347;1253;73005;-66
2023/03/18 01:18:47;;;;;;;28.20;15.70;;;;;;;18.49;31.89;101074.02;108623;1256;70446;-67
2023/03/18 01:21:16;;;;;;;29.60;16.90;;;;;;;18.66;31.76;101068.27;108339;1255;71381;-66
2023/03/18 01:23:50;;;;;;;30.30;14.50;;;;;;;18.64;31.63;101069.14;108365;1252;61651;-67
2023/03/18 01:26:18;;;;;;;31.30;16.60;;;;;;;18.54;31.74;101075.36;108051;1254;59540;-66
2023/03/18 01:28:46;;;;;;;32.90;16.30;;;;;;;18.59;31.72;101076.11;108229;1254;74125;-65
2023/03/18 01:31:15;;;;;;;27.00;14.80;;;;;;;18.48;31.94;101072.66;108283;1254;70558;-67
2023/03/18 01:33:44;;;;;;;31.00;15.80;;;;;;;18.54;31.79;101074.10;108393;1253;73564;-66
2023/03/18 01:36:14;;;;;;;30.80;15.80;;;;;;;18.30;32.09;101079.19;108115;1254;62421;-66
2023/03/18 01:38:43;;;;;;;26.50;15.20;;;;;;;18.22;32.26;101079.05;108244;1254;60201;-65
2023/03/18 01:41:16;;;;;;;29.00;14.70;;;;;;;18.23;32.23;101084.33;108180;1254;73964;-68
2023/03/18 01:43:45;;;;;;;24.20;13.90;;;;;;;18.56;31.78;101085.05;108104;1259;70032;-63
2023/03/18 01:46:33;;;;;;;26.30;13.50;;;;;;;18.15;32.14;101089.38;108251;1256;73461;-65
2023/03/18 01:49:06;;;;;;;25.90;12.60;;;;;;;18.32;32.04;101092.92;108111;1254;60680;-65
2023/03/18 01:51:34;;;;;;;26.20;11.70;;;;;;;18.29;31.92;101091.45;108039;1254;61577;-67
2023/03/18 01:54:04;;;;;;;21.20;10.70;;;;;;;18.51;31.67;101091.70;108033;1255;74267;-65
2023/03/18 01:56:33;;;;;;;22.50;11.60;;;;;;;18.68;31.42;101092.20;108206;1254;70510;-65
2023/03/18 01:59:02;;;;;;;24.80;12.00;;;;;;;18.49;31.41;101096.26;108076;1254;73837;-65
2023/03/18 02:02:00;;;;;;;23.80;11.60;;;;;;;18.35;31.64;101097.73;107926;1252;60611;-66
2023/03/18 02:04:34;;;;;;;20.20;10.60;;;;;;;18.55;31.28;101098.08;108228;1253;59531;-65
2023/03/18 02:07:03;;;;;;;24.80;11.00;;;;;;;18.61;31.27;101094.73;107963;1254;73071;-65
2023/03/18 02:09:31;;;;;;;21.90;11.60;;;;;;;18.62;31.15;101094.66;108128;1254;70593;-66
2023/03/18 02:12:02;;;;;;;19.40;10.00;;;;;;;18.43;31.33;101101.59;108326;1254;73936;-66
2023/03/18 02:14:31;;;;;;;21.80;10.90;;;;;;;18.37;31.32;101100.14;108327;1255;60029;-66
2023/03/18 02:17:02;;;;;;;20.00;10.50;;;;;;;18.28;31.39;101099.88;108343;1254;59998;-66
2023/03/18 02:20:01;;;;;;;15.70;9.10;;;;;;;18.07;31.61;101101.70;108328;1253;72466;-66
2023/03/18 02:22:37;;;;;;;20.50;9.50;;;;;;;18.16;31.47;101106.73;107998;1254;71576;-66
2023/03/18 02:25:30;;;;;;;22.40;10.50;;;;;;;18.00;31.48;101104.58;108161;1257;72507;-65
2023/03/18 02:28:05;;;;;;;16.80;9.40;;;;;;;18.09;31.40;101112.45;108190;1253;62403;-66
2023/03/18 02:30:42;;;;;;;22.50;10.80;;;;;;;18.16;31.36;101108.69;108015;1254;61638;-65
2023/03/18 02:33:14;;;;;;;25.80;10.90;;;;;;;18.35;31.17;101112.14;108305;1254;72298;-67
2023/03/18 02:35:49;;;;;;;21.10;10.20;;;;;;;18.19;31.19;101116.91;108090;1254;71365;-66
2023/03/18 02:38:18;;;;;;;16.40;10.10;;;;;;;17.97;31.44;101116.25;108101;1254;73933;-65
2023/03/18 02:40:47;;;;;;;19.60;10.80;;;;;;;18.10;31.36;101115.58;108083;1254;60128;-65
2023/03/18 02:43:23;;;;;;;21.80;10.30;;;;;;;18.27;31.14;101112.73;108324;1254;61560;-65
2023/03/18 02:46:28;;;;;;;23.20;10.70;;;;;;;18.28;31.13;101114.30;108307;1257;73918;-66
2023/03/18 02:48:58;;;;;;;20.20;9.80;;;;;;;18.37;30.97;101113.41;108368;1256;71090;-64
2023/03/18 02:51:27;;;;;;;15.30;9.30;;;;;;;18.31;30.94;101114.84;108036;1252;71993;-66
2023/03/18 02:54:00;;;;;;;20.70;10.50;;;;;;;18.46;30.85;101116.68;108113;1253;62260;-65
2023/03/18 02:56:28;;;;;;;19.40;9.50;;;;;;;18.55;30.73;101120.48;108146;1252;59806;-66
2023/03/18 02:58:57;;;;;;;17.80;9.20;;;;;;;18.46;30.79;101119.02;108359;1252;73883;-65
2023/03/18 03:01:26;;;;;;;16.60;9.00;;;;;;;18.54;30.59;101119.82;108170;1253;69901;-65
2023/03/18 03:03:55;;;;;;;16.40;8.80;;;;;;;18.65;30.54;101116.02;108057;1259;72128;-67
2023/03/18 03:06:24;;;;;;;18.50;8.80;;;;;;;18.43;30.75;101117.02;108089;1253;60360;-65
2023/03/18 03:08:53;;;;;;;18.60;9.80;;;;;;;18.44;30.74;101115.73;108201;1254;61334;-65
2023/03/18 03:11:22;;;;;;;14.30;8.70;;;;;;;18.25;30.89;101120.11;108147;1254;73917;-64
2023/03/18 03:13:50;;;;;;;19.80;9.80;;;;;;;18.55;30.65;101118.35;108156;1253;71534;-66
2023/03/18 03:16:19;;;;;;;17.60;8.70;;;;;;;18.82;30.23;101114.39;108186;1253;73717;-65
2023/03/18 03:18:47;;;;;;;16.70;9.30;;;;;;;18.70;30.37;101120.39;108178;1257;62214;-65
2023/03/18 03:21:19;;;;;;;15.60;9.00;;;;;;;18.39;30.69;101129.16;108136;1254;60297;-66
2023/03/18 03:23:48;;;;;;;15.80;9.00;;;;;;;18.12;31.08;101130.40;108192;1254;73142;-66
2023/03/18 03:26:19;;;;;;;20.40;9.60;;;;;;;18.21;31.07;101130.85;108214;1254;69664;-64
2023/03/18 03:28:48;;;;;;;19.00;9.80;;;;;;;18.45;30.75;101132.75;108172;1253;73549;-64
2023/03/18 03:31:16;;;;;;;19.90;9.90;;;;;;;18.68;30.58;101127.98;108183;1254;62306;-65
2023/03/18 03:33:45;;;;;;;17.80;9.50;;;;;;;18.88;30.26;101126.86;108228;1254;61040;-64
2023/03/18 03:36:15;;;;;;;18.20;9.50;;;;;;;18.89;30.26;101127.36;108298;1254;73298;-64
2023/03/18 03:38:45;;;;;;;20.10;9.40;;;;;;;18.78;30.39;101136.30;108247;1254;69480;-64
2023/03/18 03:41:14;;;;;;;17.80;9.60;;;;;;;18.82;30.43;101137.86;108200;1257;73497;-65
2023/03/18 03:43:43;;;;;;;16.40;9.20;;;;;;;18.84;30.39;101144.18;108213;1254;61349;-67
2023/03/18 03:46:11;;;;;;;14.60;8.60;;;;;;;18.76;30.33;101142.47;108185;1253;61423;-66
2023/03/18 03:48:41;;;;;;;18.70;9.60;;;;;;;18.87;30.29;101142.24;108226;1257;75041;-68
2023/03/18 03:51:13;;;;;;;16.00;9.20;;;;;;;18.66;30.44;101141.23;108091;1254;71521;-67
2023/03/18 03:53:44;;;;;;;17.90;9.50;;;;;;;18.58;30.55;101141.63;108149;1253;71828;-66
2023/03/18 03:56:14;;;;;;;18.20;9.40;;;;;;;18.70;30.48;101147.02;108203;1254;62385;-66
2023/03/18 03:58:44;;;;;;;16.80;8.20;;;;;;;18.84;30.31;101146.46;108102;1254;60857;-67
2023/03/18 04:01:13;;;;;;;20.20;10.00;;;;;;;18.57;30.58;101140.64;108237;1254;74662;-66
2023/03/18 04:03:43;;;;;;;19.50;9.60;;;;;;;18.81;30.29;101138.46;108131;1254;71493;-66
2023/03/18 04:06:12;;;;;;;19.00;9.20;;;;;;;18.81;30.25;101143.80;108242;1254;72226;-66
2023/03/18 04:08:46;;;;;;;19.90;8.70;;;;;;;18.86;30.19;101146.19;108201;1253;62206;-67
2023/03/18 04:11:16;;;;;;;17.70;8.90;;;;;;;18.86;30.09;101144.41;108203;1254;61517;-66
2023/03/18 04:13:45;;;;;;;17.60;9.30;;;;;;;19.00;29.91;101139.70;108014;1259;75324;-66
2023/03/18 04:16:18;;;;;;;18.50;9.30;;;;;;;18.76;30.27;101146.40;108191;1253;71284;-65
2023/03/18 04:18:49;;;;;;;22.00;11.60;;;;;;;18.89;30.05;101145.84;108172;1253;73081;-65
2023/03/18 04:21:21;;;;;;;;;;;;;;;18.81;30.21;101149.67;108108;1252;60587;-66
2023/03/18 04:23:54;;;;;;;43.60;16.20;;;;;;;19.00;29.91;101140.25;108101;1254;60160;-66
2023/03/18 04:26:23;;;;;;;34.10;14.00;;;;;;;18.66;30.23;101147.63;108172;1253;74476;-65
2023/03/18 04:28:56;;;;;;;38.50;15.30;;;;;;;18.88;30.02;101145.20;108209;1254;71295;-66
2023/03/18 04:31:24;;;;;;;32.60;13.80;;;;;;;18.80;30.05;101146.30;108165;1254;73459;-65
2023/03/18 04:33:54;;;;;;;30.50;13.10;;;;;;;18.62;30.19;101146.23;108220;1253;62142;-66
2023/03/18 04:36:23;;;;;;;25.40;11.10;;;;;;;18.44;30.46;101145.95;108074;1253;61625;-64
2023/03/18 04:38:51;;;;;;;22.60;10.60;;;;;;;18.31;30.51;101146.14;108165;1253;74803;-65
2023/03/18 04:41:21;;;;;;;26.10;11.90;;;;;;;18.06;30.81;101145.47;108132;1253;71762;-65
2023/03/18 04:43:50;;;;;;;21.20;10.70;;;;;;;17.99;31.00;101142.11;108298;1254;73631;-67
2023/03/18 04:46:18;;;;;;;21.90;10.20;;;;;;;17.84;31.20;101147.30;108269;1253;61233;-66
2023/03/18 04:48:48;;;;;;;20.40;10.40;;;;;;;17.89;31.27;101147.79;108349;1253;60302;-66
2023/03/18 04:51:17;;;;;;;18.60;8.80;;;;;;;18.05;30.99;101148.00;108336;1252;74829;-66
2023/03/18 04:53:48;;;;;;;;;;;;;;;18.34;30.61;101148.46;108337;1254;71217;-66
2023/03/18 04:56:18;;;;;;;16.20;7.90;;;;;;;18.52;30.28;101151.05;108209;1254;72898;-66
2023/03/18 04:58:49;;;;;;;18.70;8.40;;;;;;;18.37;30.42;101151.32;108097;1253;60312;-66
2023/03/18 05:01:21;;;;;;;17.70;9.00;;;;;;;18.60;30.22;101155.95;108283;1254;60211;-67
2023/03/18 05:03:49;;;;;;;15.80;8.00;;;;;;;18.87;29.82;101154.88;108229;1253;74493;-67
2023/03/18 05:06:24;;;;;;;15.40;7.70;;;;;;;18.70;29.82;101154.02;108338;1255;71271;-67
2023/03/18 05:08:59;;;;;;;17.80;7.10;;;;;;;18.91;29.72;101154.10;108285;1253;72421;-67
2023/03/18 05:11:32;;;;;;;14.10;6.90;;;;;;;19.03;29.58;101155.59;108301;1252;60666;-67
2023/03/18 05:14:07;;;;;;;12.90;6.70;;;;;;;18.91;29.74;101160.33;108100;1253;60456;-67
2023/03/18 05:16:41;;;;;;;13.80;7.10;;;;;;;18.91;29.69;101164.62;108381;1252;74834;-67
2023/03/18 05:19:12;;;;;;;16.70;7.20;;;;;;;18.97;29.69;101161.77;108214;1253;71697;-68
2023/03/18 05:21:47;;;;;;;13.00;6.80;;;;;;;18.73;29.79;101164.69;108305;1253;72395;-67
2023/03/18 05:24:18;;;;;;;;;;;;;;;18.56;30.02;101163.44;108219;1253;60647;-67
2023/03/18 05:26:50;;;;;;;10.10;5.80;;;;;;;18.58;29.94;101162.46;108204;1256;60466;-66
2023/03/18 05:29:22;;;;;;;14.40;7.50;;;;;;;18.73;29.82;101164.52;108124;1254;73138;-66
2023/03/18 05:32:10;;;;;;;12.90;6.50;;;;;;;19.01;29.47;101162.45;108113;1254;72024;-66
2023/03/18 05:34:39;;;;;;;17.80;8.80;;;;;;;19.11;29.37;101158.14;108139;1252;73724;-67
2023/03/18 05:37:10;;;;;;;18.60;8.90;;;;;;;19.24;29.26;101157.40;108028;1254;60332;-66
2023/03/18 05:39:42;;;;;;;18.30;8.20;;;;;;;19.42;29.02;101156.95;108136;1253;60270;-66
2023/03/18 05:42:14;;;;;;;24.00;9.60;;;;;;;19.44;29.03;101161.95;108052;1254;74746;-66
2023/03/18 05:44:45;;;;;;;20.90;7.90;;;;;;;19.39;28.94;101163.48;108108;1254;70681;-67
2023/03/18 05:47:14;;;;;;;19.50;8.70;;;;;;;19.15;29.26;101160.73;108142;1259;73878;-66
2023/03/18 05:49:51;;;;;;;17.30;7.90;;;;;;;19.39;29.10;101164.38;108149;1254;61940;-66
2023/03/18 05:52:23;;;;;;;22.50;9.20;;;;;;;19.35;29.02;101168.91;108045;1252;61444;-67
2023/03/18 05:54:54;;;;;;;19.10;8.70;;;;;;;19.13;29.32;101171.03;108078;1256;74831;-66
2023/03/18 05:57:27;;;;;;;16.30;7.90;;;;;;;19.29;29.24;101171.94;108044;1254;69722;-67
2023/03/18 05:59:59;;;;;;;17.70;8.30;;;;;;;19.30;29.14;101175.55;108205;1252;73367;-67
2023/03/18 06:02:31;;;;;;;15.50;8.20;;;;;;;19.28;29.20;101175.89;107998;1253;60518;-67
2023/03/18 06:05:00;;;;;;;15.50;7.90;;;;;;;19.27;29.30;101177.91;107848;1254;61205;-67
2023/03/18 06:07:29;;;;;;;11.90;6.60;;;;;;;19.21;29.37;101178.05;108229;1253;73458;-67
2023/03/18 06:09:59;;;;;;;13.20;6.40;;;;;;;19.35;29.23;101176.55;108210;1253;71682;-67
2023/03/18 06:12:29;;;;;;;11.20;6.60;;;;;;;19.41;29.11;101179.24;108211;1253;73368;-66
2023/03/18 06:14:58;;;;;;;8.70;5.60;;;;;;;19.39;29.16;101178.29;108170;1254;61951;-66
2023/03/18 06:17:26;;;;;;;12.20;6.30;;;;;;;19.33;29.29;101183.44;108163;1253;60377;-69
2023/03/18 06:19:57;;;;;;;12.40;6.20;;;;;;;19.48;29.20;101183.30;108070;1253;74605;-67
2023/03/18 06:22:26;;;;;;;12.30;6.30;;;;;;;19.67;28.94;101182.70;108163;1254;71180;-65
2023/03/18 06:24:57;;;;;;;16.00;6.70;;;;;;;19.60;29.08;101183.31;108202;1254;72905;-67
2023/03/18 06:27:29;;;;;;;10.00;6.40;;;;;;;19.57;28.98;101185.27;108206;1253;60872;-67
2023/03/18 06:30:07;;;;;;;12.00;6.60;;;;;;;19.52;29.01;101189.84;108189;1252;60328;-67
2023/03/18 06:32:36;;;;;;;;;;;;;;;19.72;28.94;101184.02;108213;1256;72909;-64
2023/03/18 06:35:09;;;;;;;12.00;6.80;;;;;;;20.14;28.60;101186.77;108358;1254;70655;-67
2023/03/18 06:37:38;;;;;;;17.20;6.30;;;;;;;19.99;28.80;101190.34;108186;1254;72689;-66
2023/03/18 06:40:08;;;;;;;10.70;5.40;;;;;;;20.25;28.49;101193.20;108368;1252;61845;-67
2023/03/18 06:42:36;;;;;;;13.10;6.40;;;;;;;20.14;28.53;101194.77;108176;1252;60459;-66
2023/03/18 06:45:12;;;;;;;12.10;6.10;;;;;;;20.24;28.48;101196.46;108188;1256;74072;-65
2023/03/18 06:47:50;;;;;;;11.70;5.40;;;;;;;20.79;27.87;101195.07;108324;1253;70616;-66
2023/03/18 06:50:19;;;;;;;12.00;6.60;;;;;;;20.96;27.72;101195.47;108311;1253;72864;-66
2023/03/18 06:52:48;;;;;;;9.40;5.20;;;;;;;20.80;27.83;101195.56;108229;1253;61377;-67
2023/03/18 06:55:18;;;;;;;8.90;5.60;;;;;;;21.22;27.34;101195.92;108334;1254;60421;-67
2023/03/18 06:57:47;;;;;;;12.00;5.80;;;;;;;20.99;27.58;101201.85;108358;1254;73505;-67
2023/03/18 07:00:18;;;;;;;13.40;6.50;;;;;;;20.81;27.72;101202.28;108296;1253;70227;-68
2023/03/18 07:02:48;;;;;;;10.70;5.60;;;;;;;20.72;27.87;101206.90;108309;1252;74698;-67
2023/03/18 07:05:19;;;;;;;9.10;5.20;;;;;;;20.81;27.62;101208.53;108206;1253;60897;-68
2023/03/18 07:07:49;;;;;;;12.80;6.40;;;;;;;20.40;28.08;101210.48;108293;1252;60017;-68
2023/03/18 07:10:23;;;;;;;8.40;5.80;;;;;;;20.26;28.32;101206.52;108136;1257;73866;-66
2023/03/18 07:12:57;;;;;;;9.80;5.60;;;;;;;20.18;28.41;101207.52;108189;1254;69716;-64
2023/03/18 07:15:26;;;;;;;11.20;6.10;;;;;;;20.13;28.43;101206.77;108082;1253;72841;-64
2023/03/18 07:17:55;;;;;;;9.70;5.10;;;;;;;20.50;28.10;101206.70;108260;1254;62074;-66
2023/03/18 07:20:24;;;;;;;11.90;7.10;;;;;;;20.85;27.67;101200.98;108086;1253;61259;-67
2023/03/18 07:22:53;;;;;;;11.00;6.80;;;;;;;20.71;27.79;101201.12;107993;1253;74616;-66
2023/03/18 07:25:21;;;;;;;12.30;5.50;;;;;;;20.78;27.75;101203.52;108204;1253;69283;-68
2023/03/18 07:27:52;;;;;;;14.90;8.80;;;;;;;20.83;27.72;101203.73;108056;1253;74040;-67
2023/03/18 07:30:20;;;;;;;16.40;6.30;;;;;;;20.87;27.62;101202.99;108303;1252;61683;-66
2023/03/18 07:32:49;;;;;;;9.00;5.50;;;;;;;20.64;27.75;101206.19;108302;1253;60295;-65
2023/03/18 07:35:17;;;;;;;10.00;5.50;;;;;;;20.52;27.83;101207.43;108144;1254;74094;-66
2023/03/18 07:37:47;;;;;;;10.00;5.50;;;;;;;20.66;27.84;101210.13;108293;1254;71223;-67
2023/03/18 07:40:15;;;;;;;12.20;5.90;;;;;;;20.63;27.83;101209.48;108245;1253;73403;-67
2023/03/18 07:42:45;;;;;;;13.30;5.90;;;;;;;20.93;27.64;101205.80;108257;1254;61248;-67
2023/03/18 07:45:16;;;;;;;15.40;6.10;;;;;;;21.35;27.27;101197.71;108295;1254;61269;-63
2023/03/18 07:47:44;;;;;;;10.80;5.60;;;;;;;21.19;27.43;101205.77;108313;1253;75302;-66
2023/03/18 07:50:15;;;;;;;7.80;5.60;;;;;;;21.08;27.57;101204.88;108324;1253;71035;-67
2023/03/18 07:52:47;;;;;;;8.50;4.90;;;;;;;21.29;27.24;101202.27;108315;1253;73721;-66
2023/03/18 07:55:15;;;;;;;10.40;5.70;;;;;;;21.60;26.98;101198.98;108127;1253;62068;-66
2023/03/18 07:57:46;;;;;;;;;;;;;;;21.78;26.61;101200.33;108224;1252;60912;-68
2023/03/18 08:00:15;;;;;;;19.20;9.80;;;;;;;21.82;26.77;101194.66;108354;1254;75110;-67
2023/03/18 08:02:44;;;;;;;18.00;8.60;;;;;;;21.87;26.68;101194.48;108376;1254;68426;-67
2023/03/18 08:05:14;;;;;;;11.00;6.30;;;;;;;22.07;26.31;101197.32;108104;1254;73743;-68
2023/03/18 08:07:43;;;;;;;12.10;7.90;;;;;;;22.08;26.61;101195.40;108040;1253;60208;-68
2023/03/18 08:10:13;;;;;;;18.80;9.00;;;;;;;22.11;26.18;101199.14;108254;1253;59698;-67
2023/03/18 08:12:46;;;;;;;12.20;6.40;;;;;;;21.95;26.36;101200.96;108308;1252;73540;-67
2023/03/18 08:15:21;;;;;;;14.80;8.60;;;;;;;22.04;26.39;101200.50;108329;1253;71529;-67
2023/03/18 08:17:52;;;;;;;45.60;25.50;;;;;;;21.86;26.64;101204.23;108748;1253;72560;-66
2023/03/18 08:20:21;;;;;;;12.90;9.10;;;;;;;21.62;26.73;101204.21;108423;1254;60745;-66
2023/03/18 08:22:50;;;;;;;14.40;8.00;;;;;;;22.08;26.39;101200.96;108343;1252;60453;-68
2023/03/18 08:25:22;;;;;;;10.00;6.10;;;;;;;21.96;26.41;101199.23;108289;1253;73026;-67
2023/03/18 08:27:51;;;;;;;6.50;4.80;;;;;;;21.87;26.67;101199.14;108342;1253;71104;-67
2023/03/18 08:30:19;;;;;;;12.80;7.30;;;;;;;21.79;26.81;101204.33;108185;1253;73832;-65
2023/03/18 08:32:48;;;;;;;27.30;20.20;;;;;;;21.87;26.55;101200.79;108256;1253;61187;-68
2023/03/18 08:35:16;;;;;;;68.90;37.60;;;;;;;22.17;26.31;101207.33;108278;1252;60493;-68
2023/03/18 08:37:49;;;;;;;44.70;18.50;;;;;;;21.95;26.52;101206.52;108126;1254;73289;-67
2023/03/18 08:40:19;;;;;;;16.60;7.60;;;;;;;22.03;26.45;101207.05;108276;1252;71161;-67
2023/03/18 08:42:47;;;;;;;9.60;4.90;;;;;;;21.81;26.61;101209.90;108250;1252;72927;-68
2023/03/18 08:45:16;;;;;;;14.80;7.00;;;;;;;21.73;26.70;101207.27;108055;1254;61482;-67
2023/03/18 08:47:44;;;;;;;8.70;5.50;;;;;;;21.59;26.93;101210.83;108233;1253;60334;-67
2023/03/18 08:50:13;;;;;;;11.40;5.80;;;;;;;21.67;26.81;101209.48;108230;1252;75105;-68
2023/03/18 08:52:42;;;;;;;8.90;5.20;;;;;;;21.55;27.03;101209.86;108315;1254;70102;-67
2023/03/18 08:55:10;;;;;;;25.00;11.60;;;;;;;21.62;26.98;101204.06;108257;1254;73496;-66
2023/03/18 08:57:39;;;;;;;8.50;5.50;;;;;;;21.84;26.69;101207.79;108233;1254;60615;-67
2023/03/18 09:00:08;;;;;;;36.30;10.60;;;;;;;21.48;27.12;101207.13;108155;1253;60292;-68
2023/03/18 09:02:43;;;;;;;11.20;5.10;;;;;;;21.51;27.08;101207.41;108241;1254;74826;-68
2023/03/18 09:05:12;;;;;;;14.70;6.40;;;;;;;21.43;27.27;101200.30;108321;1254;71564;-68
2023/03/18 09:07:40;;;;;;;12.30;5.40;;;;;;;21.61;26.95;101201.98;108262;1256;71109;-68
2023/03/18 09:10:11;;;;;;;14.50;6.80;;;;;;;21.49;27.01;101200.27;108165;1254;62574;-68
2023/03/18 09:12:41;;;;;;;17.00;7.70;;;;;;;21.44;27.00;101199.67;108324;1254;59424;-68
2023/03/18 09:15:10;;;;;;;19.50;6.50;;;;;;;21.31;27.17;101203.89;108313;1253;74735;-68
2023/03/18 09:17:39;;;;;;;14.10;6.20;;;;;;;21.39;27.09;101205.53;108219;1253;70335;-67
2023/03/18 09:20:27;;;;;;;24.60;15.40;;;;;;;21.31;27.15;101211.27;108270;1253;73623;-69
2023/03/18 09:22:59;;;;;;;46.30;21.80;;;;;;;21.39;27.14;101211.59;108184;1254;60848;-68
2023/03/18 09:25:27;;;;;;;42.20;10.60;;;;;;;21.62;26.74;101207.65;108258;1253;61681;-69
2023/03/18 09:27:55;;;;;;;17.20;6.60;;;;;;;21.66;26.68;101209.35;108272;1256;73679;-67
2023/03/18 09:30:32;;;;;;;17.20;5.70;;;;;;;21.52;26.84;101211.64;108284;1252;71136;-68
2023/03/18 09:33:01;;;;;;;16.40;6.00;;;;;;;21.31;27.22;101209.61;108156;1253;72988;-68
2023/03/18 09:35:33;;;;;;;10.00;5.10;;;;;;;21.40;26.95;101212.45;108207;1254;62062;-66
2023/03/18 09:38:03;;;;;;;8.30;4.30;;;;;;;21.40;26.94;101213.89;108301;1253;61535;-68
2023/03/18 09:40:34;;;;;;;13.70;5.40;;;;;;;21.43;26.82;101208.67;108213;1253;73054;-68
2023/03/18 09:43:28;;;;;;;21.80;6.00;;;;;;;21.61;26.76;101212.13;108267;1256;70392;-68
2023/03/18 09:46:20;;;;;;;14.80;5.50;;;;;;;21.79;26.37;101205.23;108153;1253;72950;-69
2023/03/18 09:49:24;;;;;;;17.50;7.70;;;;;;;22.01;26.20;101201.84;108275;1253;60465;-64
2023/03/18 09:52:08;;;;;;;14.40;7.40;;;;;;;21.91;26.31;101202.27;108259;1253;60784;-63
2023/03/18 09:54:40;;;;;;;25.80;6.90;;;;;;;21.93;26.39;101202.67;108285;1254;75038;-65
2023/03/18 09:57:16;;;;;;;;;;;;;;;21.92;26.20;101201.36;108098;1254;70236;-69
2023/03/18 09:59:46;;;;;;;12.00;4.40;;;;;;;21.97;26.28;101198.81;108288;1253;72901;-67
2023/03/18 10:02:48;;;;;;;25.60;7.80;;;;;;;22.06;26.17;101200.18;108177;1252;62295;-64
2023/03/18 10:05:31;;;;;;;19.50;6.90;;;;;;;22.09;26.06;101193.39;108304;1253;60882;-67
2023/03/18 10:08:11;;;;;;;9.40;4.40;;;;;;;22.22;25.96;101194.30;108373;1256;74168;-68
2023/03/18 10:10:42;;;;;;;14.90;6.10;;;;;;;22.25;25.89;101193.36;108266;1253;71352;-68
2023/03/18 10:13:35;;;;;;;6.00;3.60;;;;;;;22.35;26.04;101194.67;108190;1253;70780;-67
2023/03/18 10:16:04;;;;;;;14.90;5.00;;;;;;;22.62;25.75;101190.83;108306;1253;61489;-69
2023/03/18 10:18:38;;;;;;;10.10;6.00;;;;;;;22.64;25.84;101192.64;108253;1252;60371;-68
2023/03/18 10:21:26;;;;;;;8.60;5.30;;;;;;;22.80;25.63;101186.30;108222;1254;72971;-67
2023/03/18 10:24:13;;;;;;;13.50;5.50;;;;;;;22.86;25.38;101186.62;108354;1253;70527;-68
2023/03/18 10:26:51;;;;;;;8.20;4.10;;;;;;;22.44;25.65;101191.90;108383;1253;73758;-67
2023/03/18 10:29:27;;;;;;;8.10;3.80;;;;;;;22.44;25.50;101190.51;108345;1253;61191;-67
2023/03/18 10:32:29;;;;;;;8.70;4.30;;;;;;;22.61;25.43;101192.33;108355;1252;60610;-67
2023/03/18 10:35:37;;;;;;;8.70;4.00;;;;;;;22.68;25.63;101192.67;108322;1253;74849;-69
2023/03/18 10:38:42;;;;;;;8.90;3.80;;;;;;;22.76;25.43;101187.86;108335;1253;69580;-66
2023/03/18 10:41:14;;;;;;;21.40;7.60;;;;;;;22.76;25.41;101186.20;107707;1259;72964;-68
2023/03/18 10:43:44;;;;;;;18.50;6.80;;;;;;;22.77;25.38;101182.77;108199;1253;61292;-67
2023/03/18 10:46:34;;;;;;;11.00;5.90;;;;;;;22.87;25.09;101177.37;108217;1253;60386;-68
2023/03/18 10:49:07;;;;;;;21.20;8.60;;;;;;;23.00;25.13;101176.07;108134;1257;74268;-68
2023/03/18 10:51:40;;;;;;;19.80;6.40;;;;;;;23.09;25.07;101176.33;108353;1254;71521;-67
2023/03/18 10:54:22;;;;;;;17.70;8.10;;;;;;;23.23;24.97;101171.77;108285;1253;72670;-68
2023/03/18 10:56:52;;;;;;;14.00;6.20;;;;;;;23.24;24.83;101171.13;108128;1252;61105;-68
2023/03/18 10:59:21;;;;;;;14.90;5.80;;;;;;;22.98;25.02;101173.34;108215;1253;60299;-68
2023/03/18 11:02:14;;;;;;;10.60;4.80;;;;;;;22.84;25.14;101170.42;108317;1254;72925;-67
2023/03/18 11:04:53;;;;;;;9.90;4.70;;;;;;;22.63;25.43;101175.02;108214;1254;68237;-68
2023/03/18 11:07:24;;;;;;;42.50;23.80;;;;;;;22.64;25.36;101171.89;108312;1253;72695;-68
2023/03/18 11:09:54;;;;;;;31.20;10.90;;;;;;;22.73;25.25;101171.77;108209;1253;60412;-68
2023/03/18 11:12:27;;;;;;;20.20;5.40;;;;;;;22.70;25.46;101171.25;108181;1253;60344;-67
2023/03/18 11:14:56;;;;;;;27.00;7.70;;;;;;;22.68;25.42;101172.30;108279;1253;73389;-67
2023/03/18 11:17:32;;;;;;;16.10;6.10;;;;;;;22.88;25.30;101167.10;108176;1253;148999;-67
2023/03/18 11:20:46;;;;;;;15.30;5.70;;;;;;;19.17;29.77;101169.86;104950;1289;599620;-64
2023/03/18 11:23:18;;;;;;;6.90;4.10;;;;;;;21.30;27.41;101164.15;107304;1264;59820;-66
2023/03/18 11:25:47;;;;;;;22.10;8.70;;;;;;;22.17;26.28;101162.08;107437;1263;60716;-65
2023/03/18 11:28:22;;;;;;;8.30;3.30;;;;;;;22.52;25.97;101158.41;107484;1264;73291;-66
2023/03/18 11:30:54;;;;;;;7.10;3.40;;;;;;;22.59;25.73;101158.48;107407;1264;70647;-68
2023/03/18 11:33:24;;;;;;;14.90;5.60;;;;;;;22.86;25.58;101148.81;107274;1263;192769;-68